Time;durP1;ratioP1;P1;durP2;ratioP2;P2;SDS_P1;SDS_P2;PMS_P1;PMS_P2;Temp;Humidity;BMP_temperature;BMP_pressure;BME280_temperature;BME280_humidity;BME280_pressure;Samples;Min_cycle;Max_cycle;Signal;HPM_P1;HPM_P2
2022/06/04 00:00:23;;;;;;;2.75;1.25;;;;;;;27.06;32.11;101426.97;5033499;28;20410;-67
2022/06/04 00:02:49;;;;;;;2.25;1.20;;;;;;;27.02;32.22;101431.25;5034928;28;20483;-68
2022/06/04 00:05:20;;;;;;;1.38;1.10;;;;;;;26.99;32.14;101436.34;5034925;28;20037;-67
2022/06/04 00:07:46;;;;;;;7.10;1.20;;;;;;;26.95;32.40;101435.94;5034817;28;20108;-67
2022/06/04 00:15:47;;;;;;;2.53;1.13;;;;;;;26.86;32.53;101430.91;5034481;28;20175;-68
2022/06/04 00:18:12;;;;;;;4.90;1.75;;;;;;;26.81;32.50;101417.81;5034405;28;20049;-67
2022/06/04 00:20:38;;;;;;;2.47;1.38;;;;;;;26.78;32.26;101415.53;5034467;28;20071;-68
2022/06/04 00:23:06;;;;;;;2.08;1.20;;;;;;;26.77;32.99;101429.47;5034302;28;20033;-68
2022/06/04 00:25:31;;;;;;;1.10;1.00;;;;;;;26.73;32.95;101426.31;5034270;28;20155;-67
2022/06/04 00:27:58;;;;;;;4.85;0.88;;;;;;;26.69;32.73;101429.72;5034532;28;20513;-67
2022/06/04 00:30:24;;;;;;;5.30;1.85;;;;;;;26.68;32.39;101430.78;5034333;28;20029;-68
2022/06/04 00:32:50;;;;;;;2.40;1.10;;;;;;;26.68;32.63;101445.38;5032867;28;20517;-66
2022/06/04 00:35:15;;;;;;;2.13;0.88;;;;;;;26.66;32.64;101446.66;5034400;28;20030;-67
2022/06/04 00:37:41;;;;;;;0.65;0.65;;;;;;;26.64;32.70;101449.63;5034229;28;20495;-67
2022/06/04 00:40:09;;;;;;;1.60;1.10;;;;;;;26.61;32.72;101441.81;5034103;28;20368;-67
2022/06/04 00:42:34;;;;;;;3.05;1.20;;;;;;;26.57;32.35;101444.16;5034059;28;20505;-67
2022/06/04 00:45:21;;;;;;;2.10;1.15;;;;;;;26.55;32.43;101438.03;5034173;28;20028;-68
2022/06/04 00:47:48;;;;;;;2.47;0.82;;;;;;;26.52;32.72;101445.88;5033994;28;20018;-67
2022/06/04 00:50:15;;;;;;;3.67;1.13;;;;;;;26.47;32.80;101451.16;5033800;28;20021;-67
2022/06/04 00:52:42;;;;;;;0.82;0.82;;;;;;;26.42;32.58;101461.97;5034057;28;20495;-68
2022/06/04 00:55:08;;;;;;;4.35;1.30;;;;;;;26.40;32.31;101453.13;5033965;28;20075;-68
2022/06/04 00:57:44;;;;;;;2.45;1.42;;;;;;;26.37;32.38;101461.78;5033605;28;20029;-67
2022/06/04 01:00:30;;;;;;;2.60;1.23;;;;;;;26.35;32.82;101459.28;5033684;28;20036;-67
2022/06/04 01:03:33;;;;;;;2.17;1.27;;;;;;;26.33;32.97;101469.63;5032477;28;20033;-67
2022/06/04 01:05:58;;;;;;;1.17;0.85;;;;;;;26.28;32.86;101477.66;5033592;28;20475;-68
2022/06/04 01:08:32;;;;;;;2.67;1.02;;;;;;;26.26;33.04;101479.81;5033735;28;20083;-67
2022/06/04 01:11:05;;;;;;;4.72;1.00;;;;;;;26.23;32.76;101493.13;5033523;28;20022;-67
2022/06/04 01:14:01;;;;;;;1.05;1.00;;;;;;;26.19;32.97;101494.59;5033573;28;20082;-68
2022/06/04 01:16:38;;;;;;;1.30;1.00;;;;;;;26.16;32.67;101511.53;5033935;28;20112;-67
2022/06/04 01:19:12;;;;;;;2.85;1.05;;;;;;;26.13;33.06;101509.19;5015708;28;20036;-67
2022/06/04 01:22:02;;;;;;;1.45;1.13;;;;;;;26.11;32.82;101500.28;5033219;28;20034;-67
2022/06/04 01:24:42;;;;;;;3.92;1.65;;;;;;;26.08;32.81;101511.69;5033230;28;20025;-67
2022/06/04 01:27:14;;;;;;;2.45;1.33;;;;;;;26.04;33.16;101503.91;5032060;28;20022;-67
2022/06/04 01:30:01;;;;;;;5.00;1.23;;;;;;;26.01;32.81;101508.97;5033354;28;20026;-66
2022/06/04 01:32:31;;;;;;;6.20;1.40;;;;;;;25.96;32.76;101520.59;5032282;28;20485;-67
2022/06/04 01:35:06;;;;;;;3.85;1.17;;;;;;;25.94;33.03;101519.97;5032264;28;20048;-67
2022/06/04 01:38:13;;;;;;;4.88;1.25;;;;;;;25.91;33.03;101514.03;5033214;28;20021;-67
2022/06/04 01:43:49;;;;;;;3.38;1.30;;;;;;;25.84;33.13;101516.81;5032028;28;20086;-67
2022/06/04 01:46:19;;;;;;;1.38;0.82;;;;;;;25.81;32.98;101520.00;5032685;28;20071;-68
2022/06/04 01:48:45;;;;;;;3.10;1.27;;;;;;;25.77;33.37;101506.88;5033216;28;20025;-67
2022/06/04 01:51:17;;;;;;;3.40;1.27;;;;;;;25.73;33.15;101511.13;5031962;28;20079;-68
2022/06/04 01:53:44;;;;;;;3.25;1.40;;;;;;;25.69;33.48;101502.44;5031891;28;20030;-67
2022/06/04 01:56:15;;;;;;;3.30;1.40;;;;;;;25.65;33.58;101509.44;5033147;28;20029;-68
2022/06/04 01:58:52;;;;;;;3.83;1.45;;;;;;;25.61;33.63;101499.94;5031820;28;20029;-68
2022/06/04 02:01:22;;;;;;;2.63;1.20;;;;;;;25.60;33.68;101500.97;5032028;28;20383;-67
2022/06/04 02:04:09;;;;;;;1.20;1.08;;;;;;;25.54;33.65;101490.88;5033054;28;20061;-68
2022/06/04 02:06:40;;;;;;;2.20;1.42;;;;;;;25.50;33.76;101499.72;5032803;28;20112;-66
2022/06/04 02:09:15;;;;;;;2.65;2.25;;;;;;;25.46;33.80;101493.78;5031674;28;20536;-67
2022/06/04 02:11:48;;;;;;;1.83;1.10;;;;;;;25.42;33.79;101493.34;5031381;28;20046;-67
2022/06/04 02:14:14;;;;;;;3.00;1.20;;;;;;;25.39;33.79;101492.91;5031552;28;20239;-68
2022/06/04 02:16:46;;;;;;;3.80;1.60;;;;;;;25.33;34.15;101494.59;5034781;28;20372;-68
2022/06/04 02:19:11;;;;;;;;;;;;;;;25.29;33.43;101487.00;5038612;28;20029;-67
2022/06/04 02:21:37;;;;;;;4.90;1.67;;;;;;;25.23;33.47;101490.59;5038927;28;20278;-65
2022/06/04 02:24:04;;;;;;;2.88;1.20;;;;;;;25.19;33.71;101489.31;5039109;28;20471;-67
2022/06/04 02:26:29;;;;;;;3.38;1.50;;;;;;;25.16;33.46;101482.34;5037824;28;20025;-67
2022/06/04 02:28:57;;;;;;;3.92;1.40;;;;;;;25.14;33.89;101480.84;5038049;28;20037;-66
2022/06/04 02:31:37;;;;;;;3.25;1.10;;;;;;;25.11;34.03;101484.00;5037854;28;20036;-66
2022/06/04 02:34:33;;;;;;;1.85;1.27;;;;;;;25.04;33.49;101494.16;5039139;28;20048;-67
2022/06/04 02:37:09;;;;;;;1.98;1.30;;;;;;;24.98;34.41;101484.00;5038010;28;20029;-67
2022/06/04 02:39:41;;;;;;;2.92;1.30;;;;;;;24.95;33.65;101490.75;5039064;28;20029;-67
2022/06/04 02:42:25;;;;;;;2.00;1.27;;;;;;;24.89;33.69;101478.72;5021271;28;20075;-67
2022/06/04 02:44:57;;;;;;;2.63;1.70;;;;;;;24.84;34.70;101478.50;5039132;28;20091;-67
2022/06/04 02:47:38;;;;;;;2.60;1.50;;;;;;;24.80;34.08;101479.94;5037943;28;20037;-66
2022/06/04 02:50:09;;;;;;;4.00;1.98;;;;;;;24.77;34.06;101471.25;5038321;28;20029;-67
2022/06/04 02:52:35;;;;;;;6.55;1.30;;;;;;;24.74;34.15;101472.50;5039415;28;20024;-66
2022/06/04 02:55:08;;;;;;;2.72;1.45;;;;;;;24.72;33.94;101471.03;5039294;28;20033;-68
2022/06/04 02:57:35;;;;;;;4.15;1.67;;;;;;;24.69;34.49;101465.94;5039677;28;20026;-67
2022/06/04 03:00:04;;;;;;;2.33;1.23;;;;;;;24.66;34.21;101458.13;5038082;28;20021;-68
2022/06/04 03:02:32;;;;;;;2.72;1.27;;;;;;;24.61;34.11;101450.53;5037426;28;20036;-67
2022/06/04 03:05:06;;;;;;;2.97;1.60;;;;;;;24.57;34.31;101452.00;5037668;28;20040;-67
2022/06/04 03:07:31;;;;;;;2.42;1.40;;;;;;;24.54;34.15;101446.91;5038777;28;20048;-66
2022/06/04 03:10:03;;;;;;;4.47;1.88;;;;;;;24.52;34.72;101457.25;5037564;28;20029;-68
2022/06/04 03:12:28;;;;;;;2.83;1.35;;;;;;;24.49;34.95;101452.19;5037352;28;20491;-67
2022/06/04 03:14:54;;;;;;;2.60;1.45;;;;;;;24.45;34.21;101448.19;5038880;28;20435;-67
2022/06/04 03:17:20;;;;;;;2.63;1.42;;;;;;;24.41;34.29;101449.63;5038771;28;20099;-67
2022/06/04 03:19:45;;;;;;;1.98;1.33;;;;;;;24.40;35.13;101447.09;5038939;28;20034;-66
2022/06/04 03:22:11;;;;;;;5.03;1.38;;;;;;;24.36;35.13;101446.66;5039006;28;20040;-68
2022/06/04 03:24:36;;;;;;;2.78;1.38;;;;;;;24.30;35.32;101447.47;5038890;28;20479;-67
2022/06/04 03:27:01;;;;;;;5.18;1.50;;;;;;;24.28;35.32;101452.31;5038814;28;20032;-68
2022/06/04 03:29:27;;;;;;;7.03;1.60;;;;;;;24.25;34.58;101444.50;5034806;28;20025;-68
2022/06/04 03:31:52;;;;;;;3.55;2.17;;;;;;;24.22;34.51;101444.91;5035568;28;20017;-68
2022/06/04 03:34:17;;;;;;;4.05;2.22;;;;;;;24.17;35.34;101445.53;5035468;28;20035;-67
2022/06/04 03:36:43;;;;;;;8.15;2.03;;;;;;;24.18;35.30;101449.09;5035647;28;20056;-67
2022/06/04 03:39:09;;;;;;;3.90;1.45;;;;;;;24.17;35.36;101452.88;5034514;28;20060;-66
2022/06/04 03:41:36;;;;;;;3.22;1.75;;;;;;;24.11;35.26;101450.97;5034329;28;20479;-67
2022/06/04 03:44:02;;;;;;;2.22;1.70;;;;;;;24.10;35.26;101462.94;5035049;28;20767;-66
2022/06/04 03:46:27;;;;;;;2.90;1.50;;;;;;;24.08;35.37;101465.88;5033968;28;20032;-67
2022/06/04 03:48:54;;;;;;;5.10;1.80;;;;;;;24.07;34.66;101474.25;5035203;28;20100;-66
2022/06/04 03:51:20;;;;;;;4.03;1.80;;;;;;;24.05;34.99;101481.84;5035593;28;20497;-67
2022/06/04 03:53:45;;;;;;;2.03;1.58;;;;;;;24.03;35.71;101489.41;5035186;28;20033;-67
2022/06/04 03:56:10;;;;;;;1.60;1.50;;;;;;;24.02;35.39;101495.94;5035165;28;20472;-65
2022/06/04 03:58:36;;;;;;;11.35;1.88;;;;;;;23.99;34.78;101504.53;5035119;28;20372;-67
2022/06/04 04:01:12;;;;;;;2.63;1.63;;;;;;;23.94;35.74;101504.28;5035341;28;20079;-67
2022/06/04 04:03:38;;;;;;;1.92;1.50;;;;;;;23.91;35.24;101507.44;5035053;28;20030;-68
2022/06/04 04:06:03;;;;;;;4.30;1.73;;;;;;;23.88;35.72;101508.69;5033988;28;20359;-67
2022/06/04 04:08:28;;;;;;;4.40;1.50;;;;;;;23.86;34.77;101498.97;5035083;28;20029;-67
2022/06/04 04:10:54;;;;;;;1.83;1.45;;;;;;;23.82;34.99;101506.72;5035044;28;20068;-66
2022/06/04 04:13:19;;;;;;;2.95;1.77;;;;;;;23.82;35.00;101517.69;5034572;28;20073;-67
2022/06/04 04:15:45;;;;;;;2.65;1.75;;;;;;;23.84;35.75;101522.97;5035019;28;20517;-67
2022/06/04 04:18:11;;;;;;;3.92;1.70;;;;;;;23.85;35.68;101527.38;5035175;28;20052;-67
2022/06/04 04:20:38;;;;;;;2.55;1.40;;;;;;;23.83;35.69;101526.75;5034711;28;20022;-66
2022/06/04 04:23:06;;;;;;;7.30;3.05;;;;;;;23.86;35.68;101520.88;5034159;28;20183;-67
2022/06/04 04:25:32;;;;;;;3.13;2.10;;;;;;;23.87;35.67;101519.84;5035228;28;20406;-67
2022/06/04 04:27:59;;;;;;;3.53;1.77;;;;;;;23.88;35.61;101525.09;5034357;28;20430;-67
2022/06/04 04:30:27;;;;;;;1.60;1.42;;;;;;;23.90;34.75;101533.13;5034654;28;20033;-67
2022/06/04 04:32:53;;;;;;;2.53;1.30;;;;;;;23.94;34.85;101531.66;5034709;28;20026;-68
2022/06/04 04:35:22;;;;;;;4.80;1.85;;;;;;;23.94;35.13;101515.25;5034312;28;20110;-68
2022/06/04 04:37:47;;;;;;;2.05;1.85;;;;;;;23.95;35.44;101519.69;5034355;28;20026;-67
2022/06/04 04:40:15;;;;;;;2.03;1.40;;;;;;;23.96;35.84;101521.34;5033946;28;20086;-67
2022/06/04 04:42:41;;;;;;;2.42;1.33;;;;;;;23.94;34.87;101532.53;5034358;28;20021;-67
2022/06/04 04:45:07;;;;;;;1.70;1.48;;;;;;;23.95;35.11;101530.63;5033078;28;20033;-67
2022/06/04 04:47:39;;;;;;;7.03;1.70;;;;;;;23.94;35.75;101523.44;5034261;28;20491;-67
2022/06/04 04:50:07;;;;;;;2.83;1.80;;;;;;;23.95;35.01;101523.28;5034573;28;20493;-67
2022/06/04 04:52:32;;;;;;;8.55;1.60;;;;;;;23.96;35.04;101522.22;5034392;28;20044;-67
2022/06/04 04:54:58;;;;;;;2.45;1.80;;;;;;;23.97;35.69;101523.91;5033757;28;20017;-67
2022/06/04 04:57:23;;;;;;;3.85;1.65;;;;;;;23.98;35.28;101522.03;5034295;28;20049;-67
2022/06/04 04:59:49;;;;;;;5.68;1.58;;;;;;;24.00;35.81;101528.13;5034264;28;20061;-67
2022/06/04 05:02:14;;;;;;;3.53;1.90;;;;;;;24.02;35.37;101528.78;5033863;28;20033;-68
2022/06/04 05:04:40;;;;;;;4.47;1.77;;;;;;;24.03;35.77;101538.69;5034062;28;20034;-67
2022/06/04 05:07:05;;;;;;;3.08;1.63;;;;;;;24.05;35.80;101540.19;5033926;28;20021;-68
2022/06/04 05:09:31;;;;;;;4.32;1.70;;;;;;;24.07;35.49;101537.22;5033733;28;20406;-67
2022/06/04 05:11:56;;;;;;;2.35;2.08;;;;;;;24.06;35.92;101538.28;5033786;28;20037;-67
2022/06/04 05:14:21;;;;;;;3.97;1.85;;;;;;;24.09;35.90;101549.69;5033497;28;20030;-67
2022/06/04 05:16:47;;;;;;;4.00;2.45;;;;;;;24.11;35.14;101550.38;5032733;28;20022;-67
2022/06/04 05:19:13;;;;;;;2.83;1.60;;;;;;;24.13;34.94;101550.16;5033680;28;20041;-67
2022/06/04 05:21:42;;;;;;;3.00;1.92;;;;;;;24.13;35.04;101548.28;5033676;28;20737;-67
2022/06/04 05:24:14;;;;;;;5.40;1.85;;;;;;;24.13;35.58;101555.63;5033286;28;20033;-67
2022/06/04 05:26:40;;;;;;;4.22;1.80;;;;;;;24.15;35.58;101554.38;5032178;28;20079;-66
2022/06/04 05:29:05;;;;;;;1.77;1.67;;;;;;;24.16;34.96;101563.44;5033538;28;20033;-68
2022/06/04 05:31:30;;;;;;;5.38;1.90;;;;;;;24.16;34.97;101569.78;5033423;28;20040;-67
2022/06/04 05:33:56;;;;;;;4.95;1.85;;;;;;;24.14;35.25;101576.50;5033598;28;20045;-68
2022/06/04 05:36:22;;;;;;;3.97;2.30;;;;;;;24.12;35.14;101570.38;5033225;28;20032;-67
2022/06/04 05:38:48;;;;;;;4.20;2.00;;;;;;;24.13;36.06;101577.53;5031606;28;20467;-68
2022/06/04 05:41:13;;;;;;;2.35;1.80;;;;;;;24.13;36.18;101567.44;5032977;28;20036;-67
2022/06/04 05:43:39;;;;;;;4.55;2.10;;;;;;;24.15;35.27;101564.47;5033322;28;20108;-68
2022/06/04 05:46:06;;;;;;;4.78;2.00;;;;;;;24.15;36.02;101568.06;5033225;28;20025;-67
2022/06/04 05:48:33;;;;;;;5.88;2.55;;;;;;;24.20;35.21;101562.00;5032419;28;20029;-67
2022/06/04 05:50:58;;;;;;;3.05;2.25;;;;;;;24.24;36.10;101566.03;5032565;28;20140;-67
2022/06/04 05:53:24;;;;;;;7.40;2.33;;;;;;;24.28;36.19;101572.81;5032874;28;20545;-67
2022/06/04 05:55:50;;;;;;;3.33;2.05;;;;;;;24.31;35.81;101581.47;5032925;28;20025;-68
2022/06/04 05:58:15;;;;;;;3.70;2.22;;;;;;;24.34;36.18;101580.22;5032985;28;20489;-67
2022/06/04 06:00:41;;;;;;;7.25;2.30;;;;;;;24.36;36.21;101578.13;5031727;28;20041;-67
2022/06/04 06:03:07;;;;;;;2.63;1.92;;;;;;;24.36;36.23;101578.13;5032873;28;20029;-68
2022/06/04 06:05:33;;;;;;;7.32;2.40;;;;;;;24.39;35.96;101574.13;5032817;28;20075;-67
2022/06/04 06:07:58;;;;;;;2.35;2.15;;;;;;;24.40;36.02;101587.63;5032883;28;20026;-68
2022/06/04 06:10:24;;;;;;;5.65;2.22;;;;;;;24.38;36.21;101586.97;5032610;28;20021;-69
2022/06/04 06:12:49;;;;;;;4.65;2.20;;;;;;;24.39;35.64;101591.44;5032320;28;20110;-69
2022/06/04 06:15:15;;;;;;;8.07;2.53;;;;;;;24.40;36.54;101593.09;5032135;28;20097;-68
2022/06/04 06:17:40;;;;;;;8.68;2.08;;;;;;;24.42;35.93;101593.75;5033127;28;20124;-67
2022/06/04 06:20:07;;;;;;;5.75;2.80;;;;;;;24.44;35.71;101596.28;5031500;28;20033;-67
2022/06/04 06:22:33;;;;;;;5.63;2.20;;;;;;;24.45;35.79;101585.16;5033016;28;20108;-68
2022/06/04 06:24:58;;;;;;;4.80;2.40;;;;;;;24.50;35.80;101590.88;5032853;28;20064;-68
2022/06/04 06:27:24;;;;;;;5.00;2.47;;;;;;;24.51;36.28;101587.06;5032759;28;20033;-67
2022/06/04 06:29:50;;;;;;;7.85;2.75;;;;;;;24.53;36.60;101595.94;5032690;28;20033;-67
2022/06/04 06:32:15;;;;;;;5.10;2.65;;;;;;;24.56;36.69;101608.38;5032571;28;20022;-67
2022/06/04 06:34:40;;;;;;;2.97;2.22;;;;;;;24.56;35.70;101606.50;5032697;28;20030;-67
2022/06/04 06:37:06;;;;;;;5.65;2.80;;;;;;;24.58;35.88;101609.88;5032573;28;20445;-68
2022/06/04 06:39:31;;;;;;;5.45;3.05;;;;;;;24.62;35.70;101610.31;5032516;28;20022;-67
2022/06/04 06:41:57;;;;;;;4.30;2.58;;;;;;;24.64;36.35;101619.19;5032401;28;20155;-66
2022/06/04 06:44:23;;;;;;;6.22;2.60;;;;;;;24.65;36.18;101618.16;5032079;28;20494;-68
2022/06/04 06:46:49;;;;;;;5.45;2.22;;;;;;;24.66;36.34;101623.41;5032376;28;20403;-68
2022/06/04 06:49:27;;;;;;;5.47;2.75;;;;;;;24.65;35.85;101624.44;5032045;28;20083;-67
2022/06/04 06:51:58;;;;;;;2.40;2.13;;;;;;;24.65;35.67;101638.16;5032303;28;20026;-68
2022/06/04 06:54:26;;;;;;;8.23;2.58;;;;;;;24.66;36.22;101628.91;5031021;28;20024;-67
2022/06/04 06:56:52;;;;;;;4.93;2.83;;;;;;;24.66;36.67;101623.41;5032541;28;20025;-67
2022/06/04 06:59:21;;;;;;;6.53;2.90;;;;;;;24.66;36.19;101620.66;5031066;28;20372;-68
2022/06/04 07:01:48;;;;;;;3.00;2.67;;;;;;;24.66;36.69;101623.41;5030896;28;20360;-67
2022/06/04 07:04:14;;;;;;;4.13;2.30;;;;;;;24.66;36.04;101631.63;5034341;28;20074;-67
2022/06/04 07:06:46;;;;;;;6.38;2.83;;;;;;;24.66;36.44;101623.41;5035037;28;20470;-67
2022/06/04 07:09:15;;;;;;;5.10;2.88;;;;;;;24.67;36.24;101625.13;5034863;28;20521;-67
2022/06/04 07:11:40;;;;;;;6.28;3.63;;;;;;;24.71;36.38;101625.53;5034391;28;20046;-68
2022/06/04 07:14:06;;;;;;;5.38;2.95;;;;;;;24.72;36.70;101624.50;5036129;28;20049;-68
2022/06/04 07:16:31;;;;;;;5.18;3.75;;;;;;;24.71;35.91;101626.38;5035816;28;20042;-68
2022/06/04 07:18:57;;;;;;;6.53;3.42;;;;;;;24.72;36.85;101619.88;5035924;28;20479;-67
2022/06/04 07:21:22;;;;;;;3.63;2.90;;;;;;;24.76;35.97;101621.13;5034502;28;20025;-67
2022/06/04 07:23:48;;;;;;;5.35;2.60;;;;;;;24.84;36.61;101615.56;5035534;28;20037;-68
2022/06/04 07:26:13;;;;;;;6.95;3.13;;;;;;;24.93;35.86;101616.19;5034671;28;20017;-67
2022/06/04 07:28:42;;;;;;;4.88;2.70;;;;;;;25.01;36.17;101609.72;5035654;28;20056;-67
2022/06/04 07:31:12;;;;;;;4.80;3.00;;;;;;;25.12;36.08;101603.63;5035519;28;20032;-68
2022/06/04 07:33:38;;;;;;;6.93;2.95;;;;;;;25.23;36.27;101614.00;5035436;28;20029;-67
2022/06/04 07:36:04;;;;;;;3.88;3.05;;;;;;;25.32;36.05;101604.56;5034000;28;20025;-67
2022/06/04 07:38:30;;;;;;;6.72;3.03;;;;;;;25.39;35.53;101602.66;5017498;28;20029;-66
2022/06/04 07:40:55;;;;;;;6.32;3.97;;;;;;;25.41;35.79;101608.78;5035460;28;20029;-67
2022/06/04 07:43:20;;;;;;;9.18;4.18;;;;;;;25.46;36.27;101603.53;5035715;28;20078;-66
2022/06/04 07:45:46;;;;;;;4.75;3.17;;;;;;;25.56;35.66;101598.50;5035523;28;20025;-67
2022/06/04 07:48:12;;;;;;;5.97;2.75;;;;;;;25.69;35.99;101604.00;5035171;28;20029;-67
2022/06/04 07:50:38;;;;;;;5.97;2.90;;;;;;;25.84;35.80;101618.41;5035580;28;20444;-66
2022/06/04 07:53:04;;;;;;;3.75;3.17;;;;;;;26.04;35.64;101622.00;5035277;28;20021;-67
2022/06/04 07:55:29;;;;;;;4.13;3.17;;;;;;;26.26;35.79;101619.06;5033528;28;20445;-67
2022/06/04 07:57:55;;;;;;;4.63;2.80;;;;;;;26.38;35.40;101631.13;5034129;28;20025;-66
2022/06/04 08:00:21;;;;;;;5.38;3.30;;;;;;;26.48;35.54;101626.00;5034808;28;20025;-67
2022/06/04 08:02:48;;;;;;;4.90;3.40;;;;;;;26.57;35.16;101624.75;5035017;28;20160;-66
2022/06/04 08:05:13;;;;;;;7.22;3.47;;;;;;;26.63;35.41;101602.72;5034799;28;20029;-66
2022/06/04 08:07:39;;;;;;;7.40;4.32;;;;;;;26.73;35.29;101607.78;5033675;28;20044;-67
2022/06/04 08:10:06;;;;;;;5.88;3.15;;;;;;;26.82;35.32;101611.16;5034584;28;20403;-66
2022/06/04 08:12:33;;;;;;;4.07;2.92;;;;;;;26.87;35.03;101606.69;5033809;28;20049;-67
2022/06/04 08:14:59;;;;;;;5.40;3.15;;;;;;;26.94;35.16;101610.25;5033952;28;20064;-67
2022/06/04 08:17:25;;;;;;;7.82;3.30;;;;;;;27.11;34.69;101603.19;5034441;28;20068;-67
2022/06/04 08:19:51;;;;;;;8.32;3.33;;;;;;;27.27;34.70;101603.78;5033598;28;20484;-66
2022/06/04 08:22:17;;;;;;;6.43;3.75;;;;;;;27.41;34.52;101602.66;5034312;28;20528;-65
2022/06/04 08:24:42;;;;;;;7.72;3.60;;;;;;;27.45;34.20;101607.50;5033053;28;20073;-66
2022/06/04 08:27:08;;;;;;;4.45;3.45;;;;;;;27.54;34.55;101597.91;5034417;28;20383;-66
2022/06/04 08:29:35;;;;;;;6.10;3.58;;;;;;;27.66;34.21;101603.56;5034406;28;20036;-67
2022/06/04 08:32:02;;;;;;;6.00;3.53;;;;;;;27.72;34.77;101611.75;5034366;28;20022;-67
2022/06/04 08:34:27;;;;;;;8.45;3.67;;;;;;;27.91;34.41;101615.47;5036096;28;20112;-66
2022/06/04 08:36:53;;;;;;;5.93;3.65;;;;;;;28.19;33.92;101621.41;5016453;28;20521;-67
2022/06/04 08:39:18;;;;;;;5.35;3.53;;;;;;;28.39;33.74;101634.16;5034529;28;20382;-67
2022/06/04 08:41:54;;;;;;;4.88;3.28;;;;;;;28.56;34.22;101633.31;5034128;28;20045;-65
2022/06/04 08:44:29;;;;;;;8.25;3.80;;;;;;;28.74;33.89;101627.03;5033100;28;20018;-67
2022/06/04 08:47:05;;;;;;;8.15;3.53;;;;;;;28.86;33.93;101633.47;5034558;28;20021;-67
2022/06/04 08:49:42;;;;;;;9.68;3.85;;;;;;;29.06;32.86;101644.28;5034532;28;20053;-67
2022/06/04 08:52:15;;;;;;;8.75;4.03;;;;;;;29.23;33.69;101643.41;5035223;28;20028;-67
2022/06/04 08:57:36;;;;;;;5.40;3.72;;;;;;;29.53;33.20;101635.19;5034580;28;20027;-68
2022/06/04 09:00:24;;;;;;;4.35;3.08;;;;;;;29.62;32.90;101630.16;5033519;28;20083;-68
2022/06/04 09:02:52;;;;;;;4.15;3.28;;;;;;;29.77;32.38;101627.78;5033860;28;20030;-67
2022/06/04 09:05:34;;;;;;;5.95;3.67;;;;;;;29.93;32.35;101627.13;5034209;28;20022;-66
2022/06/04 09:08:04;;;;;;;7.78;3.70;;;;;;;29.98;32.43;101628.09;5032697;28;20479;-67
2022/06/04 09:10:35;;;;;;;7.35;4.10;;;;;;;29.99;32.31;101617.91;5032242;28;20034;-65
2022/06/04 09:13:12;;;;;;;3.92;3.47;;;;;;;30.06;32.66;101615.88;5032200;28;20515;-66
2022/06/04 09:15:42;;;;;;;5.70;3.83;;;;;;;30.25;32.34;101625.75;5032273;28;20467;-67
2022/06/04 09:18:15;;;;;;;7.72;3.78;;;;;;;30.52;32.05;101629.75;5031961;28;20430;-67
2022/06/04 09:20:46;;;;;;;5.03;3.47;;;;;;;30.89;31.75;101637.78;5033121;28;20032;-68
2022/06/04 09:23:26;;;;;;;6.60;3.75;;;;;;;31.23;31.07;101636.03;5033286;28;20386;-67
2022/06/04 09:26:13;;;;;;;6.32;4.18;;;;;;;31.27;31.30;101643.59;5031258;28;20037;-67
2022/06/04 09:29:03;;;;;;;8.30;4.13;;;;;;;31.37;31.39;101646.59;5033385;28;20426;-66
2022/06/04 09:31:41;;;;;;;4.55;3.45;;;;;;;31.81;30.58;101635.78;5033203;28;20526;-66
2022/06/04 09:34:22;;;;;;;5.47;3.72;;;;;;;32.17;30.69;101638.13;5032969;28;20037;-66
2022/06/04 09:36:48;;;;;;;6.50;4.30;;;;;;;32.53;30.14;101632.03;5031848;28;20038;-67
2022/06/04 09:39:24;;;;;;;5.13;3.97;;;;;;;32.82;29.93;101630.84;5031889;28;20107;-66
2022/06/04 09:41:52;;;;;;;7.38;4.45;;;;;;;33.13;29.72;101625.72;5032973;28;20029;-66
2022/06/04 09:44:18;;;;;;;11.20;3.90;;;;;;;33.46;29.50;101631.09;5032893;28;20037;-67
2022/06/04 09:46:46;;;;;;;11.10;4.22;;;;;;;33.85;29.39;101629.84;5032811;28;20021;-67
2022/06/04 09:49:29;;;;;;;4.00;3.58;;;;;;;34.32;28.56;101624.44;5031524;28;20107;-67
2022/06/04 09:51:55;;;;;;;6.55;4.13;;;;;;;34.25;29.74;101628.56;5032815;28;20017;-66
2022/06/04 09:54:24;;;;;;;6.72;3.97;;;;;;;34.36;28.53;101638.66;5032446;28;20036;-67
2022/06/04 09:56:53;;;;;;;4.55;3.97;;;;;;;34.45;29.29;101639.84;5032665;28;20014;-68
2022/06/04 09:59:28;;;;;;;8.63;4.10;;;;;;;34.18;29.55;101633.50;5032586;28;20025;-68
2022/06/04 10:02:09;;;;;;;6.88;4.88;;;;;;;34.28;28.21;101633.59;5032997;28;20375;-66
2022/06/04 10:04:40;;;;;;;1999.90;999.90;;;;;;;34.91;27.64;101635.41;5032727;28;20491;-67
2022/06/04 10:07:08;;;;;;;1999.90;999.90;;;;;;;35.84;27.59;101636.31;5031665;28;20033;-66
2022/06/04 10:12:21;;;;;;;5.70;4.47;;;;;;;38.26;25.32;101627.03;5031635;28;20071;-67
2022/06/04 10:14:59;;;;;;;6.63;4.07;;;;;;;39.23;24.98;101636.94;5031791;28;20025;-68
2022/06/04 10:17:37;;;;;;;5.18;4.68;;;;;;;39.29;24.66;101632.91;5032787;28;20040;-67
2022/06/04 10:20:03;;;;;;;7.47;3.92;;;;;;;38.92;25.16;101635.59;5032614;28;20048;-66
2022/06/04 10:22:29;;;;;;;7.72;5.13;;;;;;;38.44;25.90;101631.94;5032687;28;20076;-67
2022/06/04 10:24:59;;;;;;;7.32;4.75;;;;;;;38.05;25.30;101634.81;5032583;28;20060;-67
2022/06/04 10:27:36;;;;;;;6.90;4.25;;;;;;;37.93;25.95;101636.28;5032760;28;20032;-67
2022/06/04 10:30:20;;;;;;;6.50;4.45;;;;;;;37.93;25.54;101634.31;5032594;28;20025;-68
2022/06/04 10:33:04;;;;;;;5.97;4.03;;;;;;;38.18;25.99;101634.09;5031403;28;20021;-68
2022/06/04 10:35:40;;;;;;;7.28;5.00;;;;;;;38.44;24.67;101632.75;5032449;28;20041;-67
2022/06/04 10:38:27;;;;;;;7.43;6.72;;;;;;;38.73;25.08;101634.69;5034255;28;20033;-67
2022/06/04 10:41:13;;;;;;;6.72;4.53;;;;;;;38.95;24.84;101621.84;5036444;28;20029;-68
2022/06/04 10:43:45;;;;;;;6.47;4.88;;;;;;;39.15;24.46;101628.31;5036456;28;20087;-67
2022/06/04 10:46:32;;;;;;;8.43;4.85;;;;;;;39.35;25.02;101631.72;5036229;28;20025;-68
2022/06/04 10:49:10;;;;;;;6.78;4.93;;;;;;;39.51;23.86;101635.97;5035479;28;20025;-68
2022/06/04 10:51:35;;;;;;;6.70;5.38;;;;;;;39.75;24.89;101646.31;5035119;28;20029;-67
2022/06/04 10:54:16;;;;;;;5.53;4.97;;;;;;;39.92;24.18;101644.63;5036135;28;20021;-68
2022/06/04 10:57:20;;;;;;;9.20;5.40;;;;;;;40.12;24.25;101640.66;5035216;28;20446;-67
2022/06/04 10:59:56;;;;;;;7.50;4.53;;;;;;;40.35;23.34;101627.63;5034649;28;20099;-67
2022/06/04 11:02:28;;;;;;;6.72;4.68;;;;;;;40.52;23.56;101628.72;5034825;28;20038;-67
2022/06/04 11:05:05;;;;;;;5.03;4.07;;;;;;;40.74;23.53;101638.41;5034362;28;20037;-68
2022/06/04 11:07:53;;;;;;;22.67;5.32;;;;;;;40.93;23.45;101630.75;5034473;28;20030;-67
2022/06/04 11:10:23;;;;;;;7.40;4.97;;;;;;;41.19;22.69;101631.88;5035963;28;20022;-67
2022/06/04 11:12:53;;;;;;;8.75;4.18;;;;;;;41.14;23.10;101637.59;5034459;28;20038;-66
2022/06/04 11:15:41;;;;;;;5.43;4.65;;;;;;;40.90;22.81;101639.78;5034546;28;20026;-68
2022/06/04 11:18:25;;;;;;;7.93;4.38;;;;;;;40.49;23.37;101640.59;5034275;28;20079;-67
2022/06/04 11:21:11;;;;;;;4.72;3.33;;;;;;;40.17;23.44;101632.16;5035799;28;20033;-67
2022/06/04 11:23:44;;;;;;;5.03;4.28;;;;;;;39.76;24.11;101634.78;5035769;28;20033;-67
2022/06/04 11:26:18;;;;;;;4.97;4.40;;;;;;;39.45;24.17;101637.16;5034533;28;20028;-67
2022/06/04 11:28:44;;;;;;;8.05;4.07;;;;;;;39.16;24.70;101639.25;5034379;28;20025;-67
2022/06/04 11:31:12;;;;;;;6.57;4.63;;;;;;;38.81;24.70;101642.47;5035719;28;20100;-67
2022/06/04 11:33:43;;;;;;;11.95;5.05;;;;;;;38.43;24.17;101633.06;5035192;28;20029;-68
2022/06/04 11:36:18;;;;;;;8.73;4.13;;;;;;;38.11;24.28;101633.59;5035329;28;20021;-67
2022/06/04 11:39:16;;;;;;;7.50;4.50;;;;;;;37.74;25.07;101622.13;5035352;28;20048;-66
2022/06/04 11:41:58;;;;;;;5.65;3.97;;;;;;;37.48;25.24;101626.22;5034228;28;20029;-68
2022/06/04 11:44:42;;;;;;;8.43;4.23;;;;;;;37.26;25.25;101613.47;5035543;28;20111;-66
2022/06/04 11:47:18;;;;;;;5.45;4.13;;;;;;;37.65;25.27;101610.72;5034015;28;20036;-68
2022/06/04 11:50:10;;;;;;;6.18;3.97;;;;;;;38.36;24.38;101601.78;5034226;28;20150;-66
2022/06/04 11:53:16;;;;;;;9.07;4.55;;;;;;;38.89;24.00;101591.38;5035185;28;20082;-68